createdAt,value
2018-09-10T00:01:16.427Z,90.00
2018-09-10T00:03:44.554Z,90.00
2018-09-10T00:06:12.959Z,89.90
2018-09-10T00:08:40.920Z,90.00
2018-09-10T00:11:31.553Z,89.50
2018-09-10T00:13:59.488Z,89.50
2018-09-10T00:16:27.729Z,89.70
2018-09-10T00:18:55.689Z,90.00
2018-09-10T00:21:23.607Z,90.00
2018-09-10T00:23:52.237Z,90.40
2018-09-10T00:26:20.182Z,90.20
2018-09-10T00:28:48.085Z,90.40
2018-09-10T00:31:16.018Z,90.20
2018-09-10T00:33:45.099Z,90.30
2018-09-10T00:36:13.605Z,90.40
2018-09-10T00:38:42.198Z,90.40
2018-09-10T00:41:10.102Z,90.80
2018-09-10T00:43:38.033Z,90.60
2018-09-10T00:46:06.700Z,90.80
2018-09-10T00:48:34.629Z,90.80
2018-09-10T00:51:02.592Z,90.20
2018-09-10T00:53:30.519Z,90.50
2018-09-10T00:55:59.181Z,90.30
2018-09-10T00:58:27.115Z,90.40
2018-09-10T01:00:55.005Z,90.50
2018-09-10T01:03:22.913Z,90.30
2018-09-10T01:05:50.822Z,90.40
2018-09-10T01:08:19.539Z,90.40
2018-09-10T01:10:47.474Z,90.50
2018-09-10T01:13:15.408Z,90.60
2018-09-10T01:15:43.728Z,90.70
2018-09-10T01:18:11.673Z,90.60
2018-09-10T01:20:39.652Z,90.60
2018-09-10T01:23:07.614Z,90.60
2018-09-10T01:25:35.985Z,90.40
2018-09-10T01:28:03.981Z,90.40
2018-09-10T01:30:31.941Z,90.50
2018-09-10T01:33:00.000Z,90.80
2018-09-10T01:35:31.813Z,90.70
2018-09-10T01:37:59.830Z,90.60
2018-09-10T01:40:27.814Z,90.60
2018-09-10T01:42:55.739Z,90.80
2018-09-10T01:45:23.603Z,90.70
2018-09-10T01:47:51.508Z,90.70
2018-09-10T01:50:19.504Z,90.50
2018-09-10T01:52:47.410Z,90.70
2018-09-10T01:55:15.970Z,90.80
2018-09-10T01:57:45.140Z,90.70
2018-09-10T02:00:13.081Z,90.90
2018-09-10T02:02:40.988Z,90.60
2018-09-10T02:05:08.975Z,90.70
2018-09-10T02:07:37.949Z,90.80
2018-09-10T02:10:06.334Z,90.50
2018-09-10T02:12:34.266Z,90.50
2018-09-10T02:15:02.171Z,90.80
2018-09-10T02:17:30.851Z,90.80
2018-09-10T02:19:58.735Z,90.50
2018-09-10T02:22:26.605Z,91.10
2018-09-10T02:24:54.484Z,91.20
2018-09-10T02:27:22.434Z,91.00
2018-09-10T02:29:50.494Z,91.40
2018-09-10T02:32:18.383Z,90.90
2018-09-10T02:34:46.951Z,91.30
2018-09-10T02:37:14.844Z,90.90
2018-09-10T02:39:42.809Z,90.90
2018-09-10T02:42:10.738Z,91.10
2018-09-10T02:44:39.389Z,91.00
2018-09-10T02:47:08.369Z,91.10
2018-09-10T02:49:36.285Z,90.90
2018-09-10T02:52:05.038Z,90.90
2018-09-10T02:54:33.053Z,90.80
2018-09-10T02:57:01.915Z,90.80
2018-09-10T02:59:30.508Z,90.70
2018-09-10T03:01:58.398Z,90.70
2018-09-10T03:04:26.419Z,91.00
2018-09-10T03:06:54.855Z,91.10
2018-09-10T03:09:22.929Z,91.10
2018-09-10T03:11:50.850Z,90.90
2018-09-10T03:14:19.641Z,91.10
2018-09-10T03:16:47.589Z,91.30
2018-09-10T03:19:16.845Z,91.20
2018-09-10T03:21:44.826Z,91.40
2018-09-10T03:24:13.778Z,91.50
2018-09-10T03:26:42.231Z,91.40
2018-09-10T03:29:10.156Z,91.50
2018-09-10T03:31:38.113Z,91.60
2018-09-10T03:34:06.225Z,91.60
2018-09-10T03:36:34.251Z,91.70
2018-09-10T03:39:02.323Z,91.50
2018-09-10T03:41:30.258Z,91.50
2018-09-10T03:43:58.183Z,91.40
2018-09-10T03:46:26.098Z,91.50
2018-09-10T03:48:53.983Z,91.70
2018-09-10T03:51:21.854Z,91.80
2018-09-10T03:53:50.293Z,91.60
2018-09-10T03:56:18.237Z,91.70
2018-09-10T03:58:46.129Z,91.60
2018-09-10T04:01:14.081Z,91.80
2018-09-10T04:03:42.331Z,91.60
2018-09-10T04:06:10.234Z,91.80
2018-09-10T04:08:38.688Z,91.90
2018-09-10T04:11:06.653Z,91.80
2018-09-10T04:13:34.594Z,91.70
2018-09-10T04:16:02.606Z,91.70
2018-09-10T04:18:30.638Z,91.80
2018-09-10T04:20:58.642Z,92.30
2018-09-10T04:23:26.549Z,92.40
2018-09-10T04:25:55.201Z,92.20
2018-09-10T04:28:23.026Z,92.10
2018-09-10T04:30:50.956Z,92.20
2018-09-10T04:33:18.876Z,92.10
2018-09-10T04:35:46.792Z,92.10
2018-09-10T04:38:15.023Z,92.20
2018-09-10T04:40:43.084Z,92.30
2018-09-10T04:43:11.875Z,92.40
2018-09-10T04:45:39.803Z,92.30
2018-09-10T04:48:08.073Z,92.30
2018-09-10T04:50:36.005Z,92.10
2018-09-10T04:53:03.894Z,92.20
2018-09-10T04:55:31.949Z,92.10
2018-09-10T04:58:00.439Z,92.10
2018-09-10T05:00:28.344Z,92.20
2018-09-10T05:02:56.308Z,92.00
2018-09-10T05:05:24.249Z,92.20
2018-09-10T05:07:52.867Z,92.30
2018-09-10T05:10:21.267Z,92.30
2018-09-10T05:12:49.323Z,92.30
2018-09-10T05:15:17.252Z,92.20
2018-09-10T05:17:45.204Z,92.20
2018-09-10T05:20:13.154Z,92.40
2018-09-10T05:22:41.375Z,92.30
2018-09-10T05:25:09.300Z,92.30
2018-09-10T05:27:37.231Z,92.40
2018-09-10T05:30:05.291Z,92.40
2018-09-10T05:32:33.541Z,92.60
2018-09-10T05:35:01.490Z,92.50
2018-09-10T05:37:29.413Z,92.50
2018-09-10T05:39:57.755Z,92.40
2018-09-10T05:42:26.651Z,92.50
2018-09-10T05:44:54.582Z,92.60
2018-09-10T05:47:22.514Z,92.50
2018-09-10T05:49:50.946Z,92.70
2018-09-10T05:52:18.899Z,92.60
2018-09-10T05:54:46.803Z,92.60
2018-09-10T05:57:15.055Z,92.70
2018-09-10T05:59:43.027Z,92.70
2018-09-10T06:02:10.967Z,92.90
2018-09-10T06:04:38.876Z,93.00
2018-09-10T06:07:06.819Z,92.80
2018-09-10T06:09:35.160Z,92.70
2018-09-10T06:12:03.098Z,92.40
2018-09-10T06:14:31.016Z,92.00
2018-09-10T06:16:58.961Z,91.70
2018-09-10T06:19:27.701Z,91.50
2018-09-10T06:21:55.756Z,91.60
2018-09-10T06:24:24.671Z,91.60
2018-09-10T06:26:52.604Z,91.60
2018-09-10T06:29:21.235Z,90.80
2018-09-10T06:31:49.203Z,90.70
2018-09-10T06:34:17.396Z,90.70
2018-09-10T06:36:45.306Z,91.00
2018-09-10T06:39:13.265Z,90.70
2018-09-10T06:41:41.891Z,90.60
2018-09-10T06:44:10.569Z,90.50
2018-09-10T06:46:38.950Z,90.20
2018-09-10T06:49:07.774Z,90.00
2018-09-10T06:51:35.759Z,90.10
2018-09-10T06:54:03.725Z,90.30
2018-09-10T06:56:31.694Z,90.00
2018-09-10T06:58:59.615Z,90.10
2018-09-10T07:01:27.519Z,90.00
2018-09-10T07:03:56.358Z,90.00
2018-09-10T07:06:24.298Z,89.60
2018-09-10T07:08:52.194Z,90.00
2018-09-10T07:11:20.142Z,90.30
2018-09-10T07:13:48.128Z,90.00
2018-09-10T07:16:16.737Z,90.10
2018-09-10T07:18:44.787Z,90.00
2018-09-10T07:21:12.715Z,89.40
2018-09-10T07:23:40.615Z,89.00
2018-09-10T07:26:08.537Z,89.50
2018-09-10T07:28:36.442Z,88.10
2018-09-10T07:31:04.416Z,88.20
2018-09-10T07:33:32.350Z,88.00
2018-09-10T07:36:00.259Z,87.10
2018-09-10T07:38:28.186Z,86.40
2018-09-10T07:40:56.840Z,86.70
2018-09-10T08:01:26.265Z,84.00
2018-09-10T08:03:54.800Z,83.80
2018-09-10T08:06:22.710Z,84.50
2018-09-10T08:08:50.648Z,83.90
2018-09-10T08:11:18.719Z,83.60
2018-09-10T08:13:47.268Z,83.70
2018-09-10T08:16:15.426Z,84.40
2018-09-10T08:18:43.400Z,83.60
2018-09-10T08:21:13.077Z,83.30
2018-09-10T08:23:41.047Z,82.70
2018-09-10T08:26:08.973Z,84.10
2018-09-10T08:28:37.073Z,83.40
2018-09-10T08:31:05.452Z,83.80
2018-09-10T08:33:33.347Z,83.50
2018-09-10T08:36:01.309Z,84.00
2018-09-10T08:38:29.302Z,82.20
2018-09-10T08:40:57.288Z,82.30
2018-09-10T08:43:25.247Z,81.10
2018-09-10T08:45:53.209Z,81.20
2018-09-10T08:48:21.199Z,81.20
2018-09-10T08:50:49.103Z,80.50
2018-09-10T08:53:17.086Z,79.70
2018-09-10T08:55:45.910Z,80.20
2018-09-10T08:58:13.737Z,78.90
2018-09-10T09:00:41.674Z,78.10
2018-09-10T09:03:09.574Z,76.10
2018-09-10T09:05:37.510Z,77.10
2018-09-10T09:08:05.581Z,75.10
2018-09-10T09:10:34.127Z,72.30
2018-09-10T09:13:02.069Z,71.20
2018-09-10T09:15:30.705Z,71.70
2018-09-10T09:17:59.336Z,72.70
2018-09-10T09:20:27.288Z,73.20
2018-09-10T09:22:55.798Z,73.40
2018-09-10T09:25:24.076Z,72.10
2018-09-10T09:27:52.807Z,70.90
2018-09-10T09:30:20.910Z,71.80
2018-09-10T09:32:48.774Z,71.90
2018-09-10T09:35:16.762Z,70.70
2018-09-10T09:37:50.176Z,69.70
2018-09-10T09:40:23.746Z,70.80
2018-09-10T09:42:57.271Z,71.00
2018-09-10T09:46:34.966Z,69.20
2018-09-10T09:49:02.928Z,68.20
2018-09-10T09:51:30.853Z,71.00
2018-09-10T09:53:58.773Z,70.80
2018-09-10T09:56:27.057Z,70.60
2018-09-10T09:58:55.899Z,69.30
2018-09-10T10:01:29.357Z,70.30
2018-09-10T10:04:01.852Z,69.00
2018-09-10T10:06:30.060Z,71.00
2018-09-10T10:08:58.925Z,69.80
2018-09-10T10:11:26.838Z,69.10
2018-09-10T10:13:54.752Z,68.50
2018-09-10T10:16:22.697Z,67.60
2018-09-10T10:18:50.678Z,67.90
2018-09-10T10:21:18.624Z,68.90
2018-09-10T10:23:47.150Z,68.00
2018-09-10T10:26:15.065Z,68.10
2018-09-10T10:28:43.567Z,68.30
2018-09-10T10:31:11.488Z,66.90
2018-09-10T10:33:39.405Z,67.10
2018-09-10T10:36:07.413Z,67.50
2018-09-10T10:38:35.331Z,66.70
2018-09-10T10:41:03.509Z,64.60
2018-09-10T10:43:31.435Z,63.60
2018-09-10T10:45:59.392Z,66.80
2018-09-10T10:48:27.309Z,66.90
2018-09-10T10:50:55.330Z,65.30
2018-09-10T10:53:23.233Z,63.60
2018-09-10T10:55:51.429Z,65.80
2018-09-10T10:58:19.403Z,62.90
2018-09-10T11:00:47.395Z,63.50
2018-09-10T11:03:17.655Z,63.70
2018-09-10T11:05:45.587Z,63.40
2018-09-10T11:08:13.717Z,65.50
2018-09-10T11:10:41.661Z,63.40
2018-09-10T11:13:09.640Z,63.60
2018-09-10T11:15:37.550Z,61.30
2018-09-10T11:18:05.729Z,61.00
2018-09-10T11:20:33.639Z,60.90
2018-09-10T11:23:01.539Z,61.20
2018-09-10T11:25:30.145Z,59.60
2018-09-10T11:27:58.090Z,60.70
2018-09-10T11:30:26.015Z,61.70
2018-09-10T11:32:54.011Z,63.30
2018-09-10T11:35:22.328Z,60.40
2018-09-10T11:37:50.286Z,62.40
2018-09-10T11:40:18.301Z,63.80
2018-09-10T11:42:46.223Z,60.90
2018-09-10T11:45:14.118Z,60.40
2018-09-10T11:47:42.798Z,60.90
2018-09-10T11:50:11.390Z,62.10
2018-09-10T11:52:39.483Z,60.80
2018-09-10T11:55:07.472Z,62.00
2018-09-10T11:57:35.371Z,63.80
2018-09-10T12:00:03.758Z,61.70
2018-09-10T12:02:32.554Z,59.60
2018-09-10T12:05:00.557Z,59.20
2018-09-10T12:07:28.647Z,60.80
2018-09-10T12:09:57.115Z,59.60
2018-09-10T12:12:25.052Z,62.40
2018-09-10T12:14:53.014Z,60.70
2018-09-10T12:17:22.625Z,61.50
2018-09-10T12:19:51.241Z,61.80
2018-09-10T12:22:19.697Z,58.80
2018-09-10T12:24:47.625Z,59.20
2018-09-10T12:27:15.540Z,58.00
2018-09-10T12:29:43.387Z,63.10
2018-09-10T12:32:11.324Z,60.40
2018-09-10T12:34:39.256Z,60.90
2018-09-10T12:37:07.175Z,58.20
2018-09-10T12:39:35.101Z,58.00
2018-09-10T12:42:03.022Z,58.90
2018-09-10T12:44:31.851Z,57.20
2018-09-10T12:46:59.891Z,59.00
2018-09-10T12:49:28.575Z,57.50
2018-09-10T12:51:56.483Z,55.90
2018-09-10T12:54:24.397Z,57.10
2018-09-10T12:56:52.291Z,54.80
2018-09-10T12:59:20.195Z,57.70
2018-09-10T13:01:48.152Z,59.40
2018-09-10T13:04:16.106Z,55.30
2018-09-10T13:06:43.953Z,54.70
2018-09-10T13:09:11.884Z,55.80
2018-09-10T13:11:39.857Z,54.70
2018-09-10T13:14:07.776Z,58.30
2018-09-10T13:16:36.284Z,56.80
2018-09-10T13:19:04.236Z,56.90
2018-09-10T13:21:32.154Z,54.80
2018-09-10T13:24:00.337Z,57.00
2018-09-10T13:26:28.233Z,54.40
2018-09-10T13:28:56.620Z,57.20
2018-09-10T13:31:25.342Z,57.60
2018-09-10T13:33:53.329Z,54.60
2018-09-10T13:36:22.106Z,53.00
2018-09-10T13:38:50.165Z,56.10
2018-09-10T13:41:18.087Z,55.60
2018-09-10T13:43:45.993Z,56.30
2018-09-10T13:46:13.961Z,58.10
2018-09-10T13:48:41.836Z,55.80
2018-09-10T13:51:09.728Z,56.40
2018-09-10T13:53:37.922Z,56.90
2018-09-10T13:56:05.871Z,55.00
2018-09-10T13:58:33.777Z,56.00
2018-09-10T14:01:01.711Z,55.90
2018-09-10T14:03:29.631Z,55.60
2018-09-10T14:05:57.555Z,55.40
2018-09-10T14:08:25.482Z,56.20
2018-09-10T14:10:54.185Z,54.60
2018-09-10T14:13:22.113Z,55.30
2018-09-10T14:15:50.292Z,56.40
2018-09-10T14:18:18.264Z,55.20
2018-09-10T14:20:46.167Z,55.90
2018-09-10T14:23:14.133Z,57.50
2018-09-10T14:25:42.093Z,57.60
2018-09-10T14:28:10.061Z,55.70
2018-09-10T14:30:37.965Z,56.80
2018-09-10T14:33:06.212Z,56.60
2018-09-10T14:35:34.179Z,56.40
2018-09-10T14:38:02.061Z,58.20
2018-09-10T14:40:29.922Z,56.90
2018-09-10T14:42:57.820Z,57.20
2018-09-10T14:45:25.712Z,55.40
2018-09-10T14:47:53.642Z,56.20
2018-09-10T14:50:22.319Z,56.50
2018-09-10T14:52:50.502Z,56.00
2018-09-10T14:55:18.697Z,57.50
2018-09-10T14:57:46.614Z,55.10
2018-09-10T15:00:20.223Z,57.60
2018-09-10T15:02:48.204Z,56.40
2018-09-10T15:05:16.164Z,56.40
2018-09-10T15:07:44.411Z,57.60
2018-09-10T15:10:12.324Z,57.50
2018-09-10T15:12:40.526Z,58.00
2018-09-10T15:15:08.838Z,57.70
2018-09-10T15:17:36.767Z,59.10
2018-09-10T15:20:04.851Z,59.10
2018-09-10T15:22:32.878Z,58.80
2018-09-10T15:25:00.764Z,58.40
2018-09-10T15:27:28.637Z,59.40
2018-09-10T15:29:56.569Z,60.20
2018-09-10T15:32:24.434Z,58.10
2018-09-10T15:34:52.659Z,58.50
2018-09-10T15:37:21.121Z,58.90
2018-09-10T15:39:49.055Z,59.70
2018-09-10T15:42:16.967Z,58.90
2018-09-10T15:44:45.264Z,59.80
2018-09-10T15:47:13.178Z,59.50
2018-09-10T15:49:41.107Z,60.10
2018-09-10T15:52:09.034Z,60.50
2018-09-10T15:54:36.946Z,60.30
2018-09-10T15:57:04.886Z,60.40
2018-09-10T15:59:32.804Z,61.30
2018-09-10T16:02:00.702Z,61.90
2018-09-10T16:04:29.247Z,62.80
2018-09-10T16:06:57.164Z,60.80
2018-09-10T16:09:25.092Z,63.10
2018-09-10T16:11:53.005Z,63.40
2018-09-10T16:14:20.999Z,62.90
2018-09-10T16:16:49.332Z,63.80
2018-09-10T16:19:17.525Z,63.70
2018-09-10T16:21:45.433Z,64.10
2018-09-10T16:24:13.465Z,65.80
2018-09-10T16:26:41.348Z,66.30
2018-09-10T16:29:09.210Z,66.00
2018-09-10T16:31:37.399Z,65.10
2018-09-10T16:34:05.273Z,64.90
2018-09-10T16:36:33.137Z,65.00
2018-09-10T16:39:00.978Z,65.10
2018-09-10T16:41:28.881Z,65.40
2018-09-10T16:43:56.766Z,65.80
2018-09-10T16:46:25.302Z,66.00
2018-09-10T16:48:53.194Z,66.30
2018-09-10T16:51:21.130Z,67.20
2018-09-10T16:53:49.006Z,67.20
2018-09-10T16:56:16.885Z,67.30
2018-09-10T16:58:45.124Z,67.50
2018-09-10T17:01:13.140Z,67.70
2018-09-10T17:03:41.058Z,67.90
2018-09-10T17:06:08.922Z,67.80
2018-09-10T17:08:36.824Z,68.40
2018-09-10T17:11:06.061Z,69.00
2018-09-10T17:13:34.035Z,69.40
2018-09-10T17:16:01.937Z,69.50
2018-09-10T17:18:30.168Z,70.40
2018-09-10T17:20:58.199Z,71.50
2018-09-10T17:23:26.516Z,71.80
2018-09-10T17:25:55.179Z,73.50
2018-09-10T17:28:23.717Z,73.70
2018-09-10T17:30:52.751Z,74.10
2018-09-10T17:33:21.047Z,74.60
2018-09-10T17:35:49.334Z,74.90
2018-09-10T17:38:17.658Z,75.10
2018-09-10T17:40:46.340Z,75.40
2018-09-10T17:43:14.908Z,75.30
2018-09-10T17:45:43.767Z,75.60
2018-09-10T17:48:12.049Z,75.90
2018-09-10T17:50:41.195Z,76.20
2018-09-10T17:53:10.055Z,76.10
2018-09-10T17:55:37.997Z,77.50
2018-09-10T17:58:06.044Z,78.00
2018-09-10T18:00:38.634Z,78.90
2018-09-10T18:03:07.951Z,79.30
2018-09-10T18:05:35.869Z,80.10
2018-09-10T18:08:03.812Z,79.80
2018-09-10T18:10:32.659Z,79.90
2018-09-10T18:13:01.061Z,79.70
2018-09-10T18:15:30.217Z,79.80
2018-09-10T18:17:58.283Z,80.50
2018-09-10T18:20:26.852Z,80.20
2018-09-10T18:22:56.520Z,80.10
2018-09-10T18:25:25.364Z,80.10
2018-09-10T18:27:53.586Z,80.20
2018-09-10T18:30:21.731Z,80.40
2018-09-10T18:32:49.671Z,80.30
2018-09-10T18:35:18.216Z,80.00
2018-09-10T18:37:47.283Z,79.90
2018-09-10T18:40:16.239Z,79.80
2018-09-10T18:42:46.071Z,79.50
2018-09-10T18:45:15.289Z,79.40
2018-09-10T18:47:43.874Z,79.00
2018-09-10T18:50:12.218Z,78.90
2018-09-10T18:52:43.509Z,79.20
2018-09-10T18:55:12.547Z,78.60
2018-09-10T18:57:42.913Z,78.70
2018-09-10T19:00:12.587Z,79.30
2018-09-10T19:02:42.194Z,79.40
2018-09-10T19:05:10.390Z,79.10
2018-09-10T19:07:40.196Z,78.70
2018-09-10T19:10:09.450Z,78.80
2018-09-10T19:12:37.763Z,79.20
2018-09-10T19:15:07.017Z,79.90
2018-09-10T19:17:35.619Z,80.10
2018-09-10T19:20:03.762Z,80.50
2018-09-10T19:22:32.596Z,81.00
2018-09-10T19:25:00.677Z,81.30
2018-09-10T19:27:29.286Z,81.50
2018-09-10T19:29:58.073Z,82.00
2018-09-10T19:32:26.235Z,81.70
2018-09-10T19:34:54.410Z,80.70
2018-09-10T19:37:22.673Z,80.30
2018-09-10T19:39:51.016Z,80.60
2018-09-10T19:42:19.254Z,80.30
2018-09-10T19:44:49.457Z,79.90
2018-09-10T19:47:17.530Z,80.10
2018-09-10T19:49:46.171Z,80.00
2018-09-10T19:52:14.742Z,80.90
2018-09-10T19:54:42.693Z,81.90
2018-09-10T19:57:10.759Z,81.90
2018-09-10T19:59:39.342Z,82.10
2018-09-10T20:02:08.002Z,82.10
2018-09-10T20:04:36.326Z,82.40
2018-09-10T20:07:04.617Z,82.90
2018-09-10T20:09:32.505Z,84.20
2018-09-10T20:12:00.479Z,83.40
2018-09-10T20:14:29.329Z,83.60
2018-09-10T20:16:57.312Z,83.70
2018-09-10T20:19:25.895Z,84.20
2018-09-10T20:21:53.921Z,83.90
2018-09-10T20:24:21.846Z,83.80
2018-09-10T20:26:49.815Z,83.70
2018-09-10T20:29:17.756Z,84.10
2018-09-10T20:31:46.275Z,84.20
2018-09-10T20:34:14.177Z,84.40
2018-09-10T20:36:42.172Z,84.50
2018-09-10T20:39:11.487Z,84.30
2018-09-10T20:41:39.516Z,84.70
2018-09-10T20:44:07.518Z,84.40
2018-09-10T20:46:35.724Z,84.60
2018-09-10T20:49:03.693Z,84.70
2018-09-10T20:51:31.598Z,84.50
2018-09-10T20:53:59.492Z,84.80
2018-09-10T20:56:27.372Z,84.70
2018-09-10T20:58:55.266Z,84.20
2018-09-10T21:01:23.184Z,84.20
2018-09-10T21:03:51.193Z,84.10
2018-09-10T21:06:19.656Z,84.00
2018-09-10T21:08:47.709Z,84.50
2018-09-10T21:11:15.589Z,84.20
2018-09-10T21:13:43.467Z,85.20
2018-09-10T21:16:11.400Z,84.80
2018-09-10T21:18:39.305Z,85.00
2018-09-10T21:21:07.244Z,84.80
2018-09-10T21:23:35.154Z,85.30
2018-09-10T21:26:03.085Z,85.40
2018-09-10T21:28:31.014Z,85.40
2018-09-10T21:30:58.911Z,86.90
2018-09-10T21:33:27.117Z,86.70
2018-09-10T21:35:55.020Z,86.70
2018-09-10T21:38:22.937Z,87.40
2018-09-10T21:40:50.926Z,87.20
2018-09-10T21:43:19.461Z,87.20
2018-09-10T21:45:47.391Z,87.00
2018-09-10T21:48:15.274Z,87.10
2018-09-10T21:50:43.253Z,86.90
2018-09-10T21:53:11.126Z,87.50
2018-09-10T21:55:39.001Z,87.50
2018-09-10T21:58:06.931Z,87.90
2018-09-10T22:00:34.833Z,87.50
2018-09-10T22:03:03.004Z,88.10
2018-09-10T22:05:30.943Z,88.10
2018-09-10T22:07:58.844Z,88.20
2018-09-10T22:10:26.749Z,88.30
2018-09-10T22:12:55.029Z,88.90
2018-09-10T22:15:22.960Z,88.20
2018-09-10T22:17:50.916Z,88.20
2018-09-10T22:20:18.813Z,88.00
2018-09-10T22:22:46.754Z,88.40
2018-09-10T22:25:14.721Z,89.00
2018-09-10T22:27:42.619Z,88.20
2018-09-10T22:30:10.572Z,88.10
2018-09-10T22:32:38.491Z,88.40
2018-09-10T22:35:06.898Z,88.30
2018-09-10T22:37:34.799Z,88.00
2018-09-10T22:40:02.701Z,88.50
2018-09-10T22:42:30.621Z,89.50
2018-09-10T22:44:58.488Z,89.00
2018-09-10T22:47:26.390Z,89.10
2018-09-10T22:49:54.315Z,89.20
2018-09-10T22:52:22.831Z,89.00
2018-09-10T22:54:50.692Z,89.20
2018-09-10T22:57:18.593Z,88.80
2018-09-10T22:59:46.507Z,89.60
2018-09-10T23:02:15.079Z,88.90
2018-09-10T23:04:42.948Z,89.20
2018-09-10T23:07:10.800Z,89.30
2018-09-10T23:09:38.988Z,89.40
2018-09-10T23:12:06.857Z,89.00
2018-09-10T23:14:34.754Z,89.40
2018-09-10T23:17:02.739Z,89.60
2018-09-10T23:19:30.610Z,89.60
2018-09-10T23:21:58.858Z,89.20
2018-09-10T23:24:26.724Z,88.70
2018-09-10T23:26:54.581Z,88.60
2018-09-10T23:29:22.496Z,88.40
2018-09-10T23:31:50.371Z,88.40
2018-09-10T23:34:18.272Z,88.80
2018-09-10T23:36:46.158Z,89.50
2018-09-10T23:39:14.045Z,89.80
2018-09-10T23:41:41.954Z,89.60
2018-09-10T23:44:10.202Z,90.10
2018-09-10T23:46:38.092Z,89.90
2018-09-10T23:49:05.981Z,90.10
2018-09-10T23:51:33.829Z,90.00
2018-09-10T23:54:01.717Z,89.90
2018-09-10T23:56:29.675Z,89.30
2018-09-10T23:58:57.557Z,88.80
